sensor_id;sensor_type;location;lat;lon;timestamp;P1;durP1;ratioP1;P2;durP2;ratioP2
4984;SDS011;2509;49.902;8.600;2023-04-25T00:00:32;5.67;;;4.60;;
4984;SDS011;2509;49.902;8.600;2023-04-25T00:03:34;5.30;;;4.87;;
4984;SDS011;2509;49.902;8.600;2023-04-25T00:06:36;7.27;;;5.83;;
4984;SDS011;2509;49.902;8.600;2023-04-25T00:09:38;6.53;;;5.90;;
4984;SDS011;2509;49.902;8.600;2023-04-25T00:12:40;6.50;;;4.93;;
4984;SDS011;2509;49.902;8.600;2023-04-25T00:15:43;6.73;;;5.87;;
4984;SDS011;2509;49.902;8.600;2023-04-25T00:18:48;4.93;;;4.53;;
4984;SDS011;2509;49.902;8.600;2023-04-25T00:21:51;5.87;;;4.73;;
4984;SDS011;2509;49.902;8.600;2023-04-25T00:24:53;11.80;;;6.27;;
4984;SDS011;2509;49.902;8.600;2023-04-25T00:27:57;5.97;;;5.37;;
4984;SDS011;2509;49.902;8.600;2023-04-25T00:31:00;6.40;;;5.50;;
4984;SDS011;2509;49.902;8.600;2023-04-25T00:34:02;6.73;;;5.87;;
4984;SDS011;2509;49.902;8.600;2023-04-25T00:37:04;9.00;;;6.77;;
4984;SDS011;2509;49.902;8.600;2023-04-25T00:40:06;11.50;;;7.27;;
4984;SDS011;2509;49.902;8.600;2023-04-25T00:43:08;7.30;;;5.63;;
4984;SDS011;2509;49.902;8.600;2023-04-25T00:46:11;9.20;;;6.57;;
4984;SDS011;2509;49.902;8.600;2023-04-25T00:49:13;8.10;;;6.53;;
4984;SDS011;2509;49.902;8.600;2023-04-25T00:52:16;8.97;;;6.30;;
4984;SDS011;2509;49.902;8.600;2023-04-25T00:55:18;7.53;;;6.73;;
4984;SDS011;2509;49.902;8.600;2023-04-25T00:58:21;7.37;;;6.40;;
4984;SDS011;2509;49.902;8.600;2023-04-25T01:01:25;8.90;;;7.00;;
4984;SDS011;2509;49.902;8.600;2023-04-25T01:04:27;7.13;;;6.43;;
4984;SDS011;2509;49.902;8.600;2023-04-25T02:02:52;7.60;;;6.80;;
4984;SDS011;2509;49.902;8.600;2023-04-25T02:05:53;10.93;;;7.40;;
4984;SDS011;2509;49.902;8.600;2023-04-25T02:08:55;9.13;;;6.80;;
4984;SDS011;2509;49.902;8.600;2023-04-25T02:11:57;7.70;;;6.90;;
4984;SDS011;2509;49.902;8.600;2023-04-25T02:14:59;8.23;;;6.73;;
4984;SDS011;2509;49.902;8.600;2023-04-25T02:18:03;8.80;;;6.40;;
4984;SDS011;2509;49.902;8.600;2023-04-25T02:21:06;10.73;;;6.30;;
4984;SDS011;2509;49.902;8.600;2023-04-25T02:24:08;10.00;;;7.93;;
4984;SDS011;2509;49.902;8.600;2023-04-25T02:27:09;12.90;;;6.33;;
4984;SDS011;2509;49.902;8.600;2023-04-25T02:30:11;5.83;;;5.20;;
4984;SDS011;2509;49.902;8.600;2023-04-25T02:33:15;7.77;;;6.00;;
4984;SDS011;2509;49.902;8.600;2023-04-25T02:36:17;7.43;;;6.53;;
4984;SDS011;2509;49.902;8.600;2023-04-25T02:39:19;7.30;;;5.50;;
4984;SDS011;2509;49.902;8.600;2023-04-25T02:42:22;8.40;;;6.33;;
4984;SDS011;2509;49.902;8.600;2023-04-25T02:45:23;9.53;;;6.50;;
4984;SDS011;2509;49.902;8.600;2023-04-25T02:48:27;8.00;;;5.80;;
4984;SDS011;2509;49.902;8.600;2023-04-25T02:51:29;9.90;;;7.23;;
4984;SDS011;2509;49.902;8.600;2023-04-25T02:54:31;8.43;;;5.10;;
4984;SDS011;2509;49.902;8.600;2023-04-25T02:57:33;9.67;;;7.10;;
4984;SDS011;2509;49.902;8.600;2023-04-25T03:00:34;12.37;;;7.43;;
4984;SDS011;2509;49.902;8.600;2023-04-25T03:03:38;10.23;;;6.43;;
4984;SDS011;2509;49.902;8.600;2023-04-25T03:06:40;7.20;;;6.10;;
4984;SDS011;2509;49.902;8.600;2023-04-25T03:09:41;9.07;;;6.43;;
4984;SDS011;2509;49.902;8.600;2023-04-25T03:12:43;11.97;;;6.23;;
4984;SDS011;2509;49.902;8.600;2023-04-25T03:15:45;7.47;;;6.43;;
4984;SDS011;2509;49.902;8.600;2023-04-25T03:18:48;8.03;;;5.97;;
4984;SDS011;2509;49.902;8.600;2023-04-25T03:21:50;7.60;;;6.50;;
4984;SDS011;2509;49.902;8.600;2023-04-25T03:24:53;6.97;;;6.30;;
4984;SDS011;2509;49.902;8.600;2023-04-25T03:27:55;9.80;;;7.47;;
4984;SDS011;2509;49.902;8.600;2023-04-25T03:30:57;9.80;;;7.23;;
4984;SDS011;2509;49.902;8.600;2023-04-25T03:34:00;8.03;;;5.87;;
4984;SDS011;2509;49.902;8.600;2023-04-25T03:37:01;8.60;;;6.73;;
4984;SDS011;2509;49.902;8.600;2023-04-25T03:40:04;6.43;;;5.17;;
4984;SDS011;2509;49.902;8.600;2023-04-25T03:43:06;7.03;;;6.17;;
4984;SDS011;2509;49.902;8.600;2023-04-25T03:46:08;6.90;;;5.63;;
4984;SDS011;2509;49.902;8.600;2023-04-25T03:49:11;8.73;;;6.60;;
4984;SDS011;2509;49.902;8.600;2023-04-25T03:52:14;6.20;;;5.33;;
4984;SDS011;2509;49.902;8.600;2023-04-25T03:55:15;12.47;;;6.97;;
4984;SDS011;2509;49.902;8.600;2023-04-25T03:58:17;8.83;;;6.10;;
4984;SDS011;2509;49.902;8.600;2023-04-25T04:01:19;7.70;;;6.30;;
4984;SDS011;2509;49.902;8.600;2023-04-25T04:04:22;7.17;;;5.93;;
4984;SDS011;2509;49.902;8.600;2023-04-25T04:07:24;10.80;;;6.60;;
4984;SDS011;2509;49.902;8.600;2023-04-25T04:10:26;8.80;;;6.67;;
4984;SDS011;2509;49.902;8.600;2023-04-25T04:13:27;10.17;;;6.40;;
4984;SDS011;2509;49.902;8.600;2023-04-25T04:16:30;10.00;;;6.00;;
4984;SDS011;2509;49.902;8.600;2023-04-25T04:19:33;6.87;;;6.10;;
4984;SDS011;2509;49.902;8.600;2023-04-25T04:22:35;10.50;;;7.10;;
4984;SDS011;2509;49.902;8.600;2023-04-25T04:25:37;8.33;;;6.20;;
4984;SDS011;2509;49.902;8.600;2023-04-25T04:28:39;6.90;;;5.50;;
4984;SDS011;2509;49.902;8.600;2023-04-25T04:31:41;8.70;;;6.73;;
4984;SDS011;2509;49.902;8.600;2023-04-25T04:34:44;9.60;;;6.73;;
4984;SDS011;2509;49.902;8.600;2023-04-25T04:37:47;10.73;;;7.47;;
4984;SDS011;2509;49.902;8.600;2023-04-25T04:40:49;10.43;;;7.73;;
4984;SDS011;2509;49.902;8.600;2023-04-25T04:43:52;14.10;;;10.53;;
4984;SDS011;2509;49.902;8.600;2023-04-25T04:46:55;15.37;;;10.27;;
4984;SDS011;2509;49.902;8.600;2023-04-25T04:49:59;18.93;;;11.60;;
4984;SDS011;2509;49.902;8.600;2023-04-25T04:53:01;14.90;;;9.80;;
4984;SDS011;2509;49.902;8.600;2023-04-25T04:56:03;23.10;;;10.77;;
4984;SDS011;2509;49.902;8.600;2023-04-25T04:59:05;24.23;;;12.80;;
4984;SDS011;2509;49.902;8.600;2023-04-25T05:02:07;17.67;;;9.90;;
4984;SDS011;2509;49.902;8.600;2023-04-25T05:05:11;18.57;;;11.73;;
4984;SDS011;2509;49.902;8.600;2023-04-25T05:08:13;14.47;;;10.07;;
4984;SDS011;2509;49.902;8.600;2023-04-25T05:11:15;15.93;;;10.10;;
4984;SDS011;2509;49.902;8.600;2023-04-25T05:14:16;16.23;;;10.80;;
4984;SDS011;2509;49.902;8.600;2023-04-25T05:17:18;34.47;;;10.40;;
4984;SDS011;2509;49.902;8.600;2023-04-25T05:20:21;13.43;;;9.10;;
4984;SDS011;2509;49.902;8.600;2023-04-25T05:23:23;12.97;;;9.97;;
4984;SDS011;2509;49.902;8.600;2023-04-25T05:26:25;25.10;;;10.00;;
4984;SDS011;2509;49.902;8.600;2023-04-25T05:29:30;16.13;;;8.80;;
4984;SDS011;2509;49.902;8.600;2023-04-25T05:32:32;16.33;;;10.03;;
4984;SDS011;2509;49.902;8.600;2023-04-25T05:35:35;14.70;;;9.10;;
4984;SDS011;2509;49.902;8.600;2023-04-25T05:38:37;13.67;;;9.00;;
4984;SDS011;2509;49.902;8.600;2023-04-25T05:41:39;15.87;;;9.17;;
4984;SDS011;2509;49.902;8.600;2023-04-25T05:44:41;15.50;;;9.10;;
4984;SDS011;2509;49.902;8.600;2023-04-25T05:47:43;22.30;;;10.90;;
4984;SDS011;2509;49.902;8.600;2023-04-25T05:50:46;19.97;;;10.40;;
4984;SDS011;2509;49.902;8.600;2023-04-25T05:53:52;19.37;;;8.93;;
4984;SDS011;2509;49.902;8.600;2023-04-25T05:57:18;21.07;;;9.23;;
4984;SDS011;2509;49.902;8.600;2023-04-25T06:00:21;16.50;;;9.70;;
4984;SDS011;2509;49.902;8.600;2023-04-25T06:03:23;18.67;;;11.23;;
4984;SDS011;2509;49.902;8.600;2023-04-25T06:06:27;26.27;;;10.90;;
4984;SDS011;2509;49.902;8.600;2023-04-25T06:09:29;15.47;;;8.23;;
4984;SDS011;2509;49.902;8.600;2023-04-25T06:12:30;19.23;;;8.57;;
4984;SDS011;2509;49.902;8.600;2023-04-25T06:15:32;16.90;;;7.97;;
4984;SDS011;2509;49.902;8.600;2023-04-25T06:18:34;15.30;;;8.10;;
4984;SDS011;2509;49.902;8.600;2023-04-25T06:21:38;11.00;;;8.33;;
4984;SDS011;2509;49.902;8.600;2023-04-25T06:24:39;14.20;;;7.70;;
4984;SDS011;2509;49.902;8.600;2023-04-25T06:27:41;11.93;;;7.37;;
4984;SDS011;2509;49.902;8.600;2023-04-25T06:30:43;15.90;;;8.60;;
4984;SDS011;2509;49.902;8.600;2023-04-25T06:33:45;12.40;;;7.83;;
4984;SDS011;2509;49.902;8.600;2023-04-25T06:36:49;13.17;;;8.53;;
4984;SDS011;2509;49.902;8.600;2023-04-25T06:39:51;10.00;;;7.37;;
4984;SDS011;2509;49.902;8.600;2023-04-25T06:42:53;8.63;;;7.47;;
4984;SDS011;2509;49.902;8.600;2023-04-25T06:45:55;12.40;;;7.33;;
4984;SDS011;2509;49.902;8.600;2023-04-25T06:48:57;14.27;;;6.83;;
4984;SDS011;2509;49.902;8.600;2023-04-25T06:52:01;9.90;;;7.20;;
4984;SDS011;2509;49.902;8.600;2023-04-25T06:55:04;10.27;;;7.37;;
4984;SDS011;2509;49.902;8.600;2023-04-25T06:58:06;15.03;;;8.27;;
4984;SDS011;2509;49.902;8.600;2023-04-25T07:01:19;13.80;;;6.80;;
4984;SDS011;2509;49.902;8.600;2023-04-25T07:08:01;14.77;;;8.10;;
4984;SDS011;2509;49.902;8.600;2023-04-25T07:11:09;13.30;;;6.80;;
4984;SDS011;2509;49.902;8.600;2023-04-25T07:14:14;16.50;;;8.83;;
4984;SDS011;2509;49.902;8.600;2023-04-25T07:17:16;17.83;;;10.13;;
4984;SDS011;2509;49.902;8.600;2023-04-25T07:20:18;11.60;;;8.27;;
4984;SDS011;2509;49.902;8.600;2023-04-25T07:23:21;13.80;;;8.40;;
4984;SDS011;2509;49.902;8.600;2023-04-25T07:26:23;9.73;;;6.70;;
4984;SDS011;2509;49.902;8.600;2023-04-25T07:29:25;14.70;;;7.00;;
4984;SDS011;2509;49.902;8.600;2023-04-25T07:32:27;10.20;;;6.80;;
4984;SDS011;2509;49.902;8.600;2023-04-25T07:35:29;10.83;;;6.10;;
4984;SDS011;2509;49.902;8.600;2023-04-25T07:38:32;12.10;;;5.37;;
4984;SDS011;2509;49.902;8.600;2023-04-25T07:41:34;13.90;;;6.40;;
4984;SDS011;2509;49.902;8.600;2023-04-25T07:44:36;10.30;;;5.50;;
4984;SDS011;2509;49.902;8.600;2023-04-25T07:47:40;8.90;;;5.57;;
4984;SDS011;2509;49.902;8.600;2023-04-25T07:50:42;12.33;;;4.80;;
4984;SDS011;2509;49.902;8.600;2023-04-25T07:53:45;11.33;;;5.90;;
4984;SDS011;2509;49.902;8.600;2023-04-25T07:56:47;21.93;;;14.30;;
4984;SDS011;2509;49.902;8.600;2023-04-25T07:59:49;8.33;;;4.90;;
4984;SDS011;2509;49.902;8.600;2023-04-25T08:02:51;5.90;;;4.37;;
4984;SDS011;2509;49.902;8.600;2023-04-25T08:05:53;4.73;;;4.20;;
4984;SDS011;2509;49.902;8.600;2023-04-25T08:08:56;10.97;;;4.63;;
4984;SDS011;2509;49.902;8.600;2023-04-25T08:11:58;5.50;;;4.03;;
4984;SDS011;2509;49.902;8.600;2023-04-25T08:15:01;9.00;;;5.40;;
4984;SDS011;2509;49.902;8.600;2023-04-25T08:18:03;9.23;;;4.43;;
4984;SDS011;2509;49.902;8.600;2023-04-25T08:21:04;8.67;;;5.37;;
4984;SDS011;2509;49.902;8.600;2023-04-25T08:24:10;9.23;;;5.10;;
4984;SDS011;2509;49.902;8.600;2023-04-25T08:27:11;9.77;;;5.17;;
4984;SDS011;2509;49.902;8.600;2023-04-25T08:30:13;8.03;;;4.97;;
4984;SDS011;2509;49.902;8.600;2023-04-25T08:33:15;4.80;;;4.17;;
4984;SDS011;2509;49.902;8.600;2023-04-25T08:36:17;6.43;;;4.57;;
4984;SDS011;2509;49.902;8.600;2023-04-25T08:39:20;6.70;;;4.60;;
4984;SDS011;2509;49.902;8.600;2023-04-25T08:42:22;8.27;;;7.23;;
4984;SDS011;2509;49.902;8.600;2023-04-25T08:45:28;6.87;;;4.53;;
4984;SDS011;2509;49.902;8.600;2023-04-25T08:48:33;5.20;;;4.13;;
4984;SDS011;2509;49.902;8.600;2023-04-25T08:51:36;5.23;;;4.73;;
4984;SDS011;2509;49.902;8.600;2023-04-25T08:54:48;5.87;;;3.97;;
4984;SDS011;2509;49.902;8.600;2023-04-25T08:57:50;5.40;;;4.90;;
4984;SDS011;2509;49.902;8.600;2023-04-25T09:00:54;4.53;;;3.83;;
4984;SDS011;2509;49.902;8.600;2023-04-25T09:03:57;6.57;;;3.93;;
4984;SDS011;2509;49.902;8.600;2023-04-25T09:06:58;4.33;;;4.03;;
4984;SDS011;2509;49.902;8.600;2023-04-25T09:10:02;5.67;;;3.60;;
4984;SDS011;2509;49.902;8.600;2023-04-25T09:13:05;7.33;;;5.83;;
4984;SDS011;2509;49.902;8.600;2023-04-25T09:16:08;5.40;;;3.60;;
4984;SDS011;2509;49.902;8.600;2023-04-25T09:19:15;3.10;;;2.90;;
4984;SDS011;2509;49.902;8.600;2023-04-25T09:22:22;4.47;;;4.07;;
4984;SDS011;2509;49.902;8.600;2023-04-25T09:25:26;3.87;;;3.57;;
4984;SDS011;2509;49.902;8.600;2023-04-25T09:28:28;4.90;;;3.63;;
4984;SDS011;2509;49.902;8.600;2023-04-25T09:31:29;6.30;;;3.97;;
4984;SDS011;2509;49.902;8.600;2023-04-25T09:34:37;3.90;;;3.50;;
4984;SDS011;2509;49.902;8.600;2023-04-25T09:37:40;4.30;;;4.00;;
4984;SDS011;2509;49.902;8.600;2023-04-25T09:40:46;3.20;;;3.00;;
4984;SDS011;2509;49.902;8.600;2023-04-25T09:43:49;6.57;;;5.57;;
4984;SDS011;2509;49.902;8.600;2023-04-25T09:46:51;5.13;;;4.00;;
4984;SDS011;2509;49.902;8.600;2023-04-25T09:49:54;3.43;;;3.20;;
4984;SDS011;2509;49.902;8.600;2023-04-25T09:53:02;8.50;;;3.63;;
4984;SDS011;2509;49.902;8.600;2023-04-25T09:56:07;4.03;;;3.50;;
4984;SDS011;2509;49.902;8.600;2023-04-25T09:59:09;3.97;;;3.40;;
4984;SDS011;2509;49.902;8.600;2023-04-25T10:02:15;3.43;;;3.20;;
4984;SDS011;2509;49.902;8.600;2023-04-25T10:05:37;4.00;;;3.43;;
4984;SDS011;2509;49.902;8.600;2023-04-25T10:08:41;3.93;;;3.70;;
4984;SDS011;2509;49.902;8.600;2023-04-25T10:11:45;4.83;;;3.70;;
4984;SDS011;2509;49.902;8.600;2023-04-25T10:14:49;8.80;;;5.37;;
4984;SDS011;2509;49.902;8.600;2023-04-25T10:17:51;5.40;;;4.80;;
4984;SDS011;2509;49.902;8.600;2023-04-25T10:20:54;6.37;;;4.10;;
4984;SDS011;2509;49.902;8.600;2023-04-25T10:23:57;6.90;;;4.53;;
4984;SDS011;2509;49.902;8.600;2023-04-25T10:27:02;5.37;;;4.53;;
4984;SDS011;2509;49.902;8.600;2023-04-25T10:30:07;6.40;;;5.90;;
4984;SDS011;2509;49.902;8.600;2023-04-25T10:33:16;6.03;;;5.20;;
4984;SDS011;2509;49.902;8.600;2023-04-25T10:36:19;5.73;;;5.00;;
4984;SDS011;2509;49.902;8.600;2023-04-25T10:39:23;4.73;;;4.43;;
4984;SDS011;2509;49.902;8.600;2023-04-25T10:42:26;4.87;;;4.43;;
4984;SDS011;2509;49.902;8.600;2023-04-25T10:45:30;5.87;;;5.43;;
4984;SDS011;2509;49.902;8.600;2023-04-25T10:48:53;5.43;;;4.93;;
4984;SDS011;2509;49.902;8.600;2023-04-25T10:52:10;5.60;;;5.20;;
4984;SDS011;2509;49.902;8.600;2023-04-25T10:55:16;6.47;;;5.33;;
4984;SDS011;2509;49.902;8.600;2023-04-25T10:58:22;6.20;;;5.30;;
4984;SDS011;2509;49.902;8.600;2023-04-25T11:01:24;6.23;;;5.60;;
4984;SDS011;2509;49.902;8.600;2023-04-25T11:04:28;6.03;;;5.53;;
4984;SDS011;2509;49.902;8.600;2023-04-25T11:07:33;5.60;;;5.20;;
4984;SDS011;2509;49.902;8.600;2023-04-25T11:10:39;5.50;;;5.00;;
4984;SDS011;2509;49.902;8.600;2023-04-25T11:13:42;7.03;;;6.13;;
4984;SDS011;2509;49.902;8.600;2023-04-25T11:16:44;5.63;;;5.23;;
4984;SDS011;2509;49.902;8.600;2023-04-25T11:19:47;6.33;;;5.73;;
4984;SDS011;2509;49.902;8.600;2023-04-25T11:22:49;5.43;;;5.13;;
4984;SDS011;2509;49.902;8.600;2023-04-25T11:25:51;9.63;;;8.00;;
4984;SDS011;2509;49.902;8.600;2023-04-25T11:28:58;5.93;;;5.50;;
4984;SDS011;2509;49.902;8.600;2023-04-25T11:32:00;6.53;;;5.93;;
4984;SDS011;2509;49.902;8.600;2023-04-25T11:35:03;22.77;;;14.13;;
4984;SDS011;2509;49.902;8.600;2023-04-25T11:38:06;19.80;;;10.33;;
4984;SDS011;2509;49.902;8.600;2023-04-25T11:41:08;11.60;;;6.67;;
4984;SDS011;2509;49.902;8.600;2023-04-25T11:44:11;24.10;;;13.57;;
4984;SDS011;2509;49.902;8.600;2023-04-25T11:47:16;6.53;;;5.80;;
4984;SDS011;2509;49.902;8.600;2023-04-25T11:50:18;6.30;;;5.70;;
4984;SDS011;2509;49.902;8.600;2023-04-25T11:53:20;6.00;;;5.53;;
4984;SDS011;2509;49.902;8.600;2023-04-25T11:56:24;5.17;;;4.70;;
4984;SDS011;2509;49.902;8.600;2023-04-25T11:59:29;6.33;;;5.33;;
4984;SDS011;2509;49.902;8.600;2023-04-25T12:02:31;6.33;;;5.20;;
4984;SDS011;2509;49.902;8.600;2023-04-25T12:05:38;7.03;;;6.13;;
4984;SDS011;2509;49.902;8.600;2023-04-25T12:12:04;6.00;;;5.40;;
4984;SDS011;2509;49.902;8.600;2023-04-25T12:15:17;5.60;;;5.20;;
4984;SDS011;2509;49.902;8.600;2023-04-25T12:18:24;9.63;;;6.70;;
4984;SDS011;2509;49.902;8.600;2023-04-25T12:21:28;6.40;;;5.77;;
4984;SDS011;2509;49.902;8.600;2023-04-25T12:24:32;8.37;;;5.27;;
4984;SDS011;2509;49.902;8.600;2023-04-25T12:27:35;7.30;;;5.70;;
4984;SDS011;2509;49.902;8.600;2023-04-25T12:34:04;5.63;;;5.17;;
4984;SDS011;2509;49.902;8.600;2023-04-25T12:37:06;16.10;;;6.40;;
4984;SDS011;2509;49.902;8.600;2023-04-25T12:40:08;6.10;;;5.70;;
4984;SDS011;2509;49.902;8.600;2023-04-25T12:43:10;8.40;;;5.93;;
4984;SDS011;2509;49.902;8.600;2023-04-25T12:46:12;7.23;;;6.47;;
4984;SDS011;2509;49.902;8.600;2023-04-25T12:49:15;8.00;;;7.03;;
4984;SDS011;2509;49.902;8.600;2023-04-25T12:52:17;6.30;;;5.90;;
4984;SDS011;2509;49.902;8.600;2023-04-25T12:55:18;7.50;;;6.90;;
4984;SDS011;2509;49.902;8.600;2023-04-25T12:58:20;6.73;;;6.33;;
4984;SDS011;2509;49.902;8.600;2023-04-25T13:01:23;5.83;;;5.37;;
4984;SDS011;2509;49.902;8.600;2023-04-25T13:04:27;5.53;;;5.13;;
4984;SDS011;2509;49.902;8.600;2023-04-25T13:07:29;8.40;;;4.83;;
4984;SDS011;2509;49.902;8.600;2023-04-25T13:10:31;5.20;;;4.53;;
4984;SDS011;2509;49.902;8.600;2023-04-25T13:13:33;4.43;;;4.00;;
4984;SDS011;2509;49.902;8.600;2023-04-25T13:16:35;4.43;;;4.13;;
4984;SDS011;2509;49.902;8.600;2023-04-25T13:19:38;4.93;;;4.53;;
4984;SDS011;2509;49.902;8.600;2023-04-25T13:22:40;4.80;;;4.40;;
4984;SDS011;2509;49.902;8.600;2023-04-25T13:25:43;4.80;;;4.50;;
4984;SDS011;2509;49.902;8.600;2023-04-25T13:28:44;5.20;;;4.07;;
4984;SDS011;2509;49.902;8.600;2023-04-25T13:31:46;4.63;;;3.40;;
4984;SDS011;2509;49.902;8.600;2023-04-25T13:34:50;4.10;;;3.10;;
4984;SDS011;2509;49.902;8.600;2023-04-25T13:37:52;7.77;;;3.27;;
4984;SDS011;2509;49.902;8.600;2023-04-25T13:40:54;16.73;;;7.83;;
4984;SDS011;2509;49.902;8.600;2023-04-25T13:43:56;4.73;;;4.33;;
4984;SDS011;2509;49.902;8.600;2023-04-25T13:46:58;8.50;;;4.83;;
4984;SDS011;2509;49.902;8.600;2023-04-25T13:50:02;4.10;;;3.70;;
4984;SDS011;2509;49.902;8.600;2023-04-25T13:53:05;4.50;;;3.90;;
4984;SDS011;2509;49.902;8.600;2023-04-25T13:56:07;4.87;;;4.27;;
4984;SDS011;2509;49.902;8.600;2023-04-25T13:59:09;4.40;;;4.10;;
4984;SDS011;2509;49.902;8.600;2023-04-25T14:02:11;4.10;;;3.70;;
4984;SDS011;2509;49.902;8.600;2023-04-25T14:05:14;5.00;;;4.17;;
4984;SDS011;2509;49.902;8.600;2023-04-25T14:08:16;4.27;;;3.87;;
4984;SDS011;2509;49.902;8.600;2023-04-25T14:11:18;5.83;;;4.63;;
4984;SDS011;2509;49.902;8.600;2023-04-25T14:14:20;6.70;;;5.47;;
4984;SDS011;2509;49.902;8.600;2023-04-25T14:17:22;5.10;;;4.80;;
4984;SDS011;2509;49.902;8.600;2023-04-25T14:20:25;4.80;;;4.40;;
4984;SDS011;2509;49.902;8.600;2023-04-25T14:23:26;5.40;;;5.00;;
4984;SDS011;2509;49.902;8.600;2023-04-25T14:26:28;5.00;;;4.57;;
4984;SDS011;2509;49.902;8.600;2023-04-25T14:29:30;4.87;;;4.57;;
4984;SDS011;2509;49.902;8.600;2023-04-25T14:32:32;5.37;;;5.07;;
4984;SDS011;2509;49.902;8.600;2023-04-25T14:35:35;16.47;;;13.17;;
4984;SDS011;2509;49.902;8.600;2023-04-25T14:38:37;5.40;;;5.00;;
4984;SDS011;2509;49.902;8.600;2023-04-25T14:41:39;5.20;;;4.70;;
4984;SDS011;2509;49.902;8.600;2023-04-25T14:44:41;6.13;;;4.50;;
4984;SDS011;2509;49.902;8.600;2023-04-25T14:47:42;8.13;;;4.00;;
4984;SDS011;2509;49.902;8.600;2023-04-25T14:50:46;4.23;;;3.97;;
4984;SDS011;2509;49.902;8.600;2023-04-25T14:53:47;6.47;;;4.63;;
4984;SDS011;2509;49.902;8.600;2023-04-25T14:56:50;5.13;;;4.73;;
4984;SDS011;2509;49.902;8.600;2023-04-25T14:59:52;5.03;;;4.50;;
4984;SDS011;2509;49.902;8.600;2023-04-25T15:02:54;4.50;;;4.20;;
4984;SDS011;2509;49.902;8.600;2023-04-25T15:05:58;12.33;;;4.73;;
4984;SDS011;2509;49.902;8.600;2023-04-25T15:09:00;4.23;;;3.93;;
4984;SDS011;2509;49.902;8.600;2023-04-25T15:12:01;9.13;;;5.30;;
4984;SDS011;2509;49.902;8.600;2023-04-25T15:15:04;5.20;;;4.90;;
4984;SDS011;2509;49.902;8.600;2023-04-25T15:18:06;5.30;;;5.00;;
4984;SDS011;2509;49.902;8.600;2023-04-25T15:21:09;6.87;;;5.53;;
4984;SDS011;2509;49.902;8.600;2023-04-25T15:24:11;5.90;;;5.33;;
4984;SDS011;2509;49.902;8.600;2023-04-25T15:27:15;6.80;;;5.00;;
4984;SDS011;2509;49.902;8.600;2023-04-25T15:30:17;5.27;;;4.40;;
4984;SDS011;2509;49.902;8.600;2023-04-25T15:33:19;5.17;;;4.50;;
4984;SDS011;2509;49.902;8.600;2023-04-25T15:36:22;4.00;;;3.70;;
4984;SDS011;2509;49.902;8.600;2023-04-25T15:39:24;4.80;;;3.07;;
4984;SDS011;2509;49.902;8.600;2023-04-25T15:42:26;6.03;;;2.87;;
4984;SDS011;2509;49.902;8.600;2023-04-25T15:45:28;6.40;;;3.20;;
4984;SDS011;2509;49.902;8.600;2023-04-25T15:48:32;3.90;;;3.60;;
4984;SDS011;2509;49.902;8.600;2023-04-25T15:51:35;3.47;;;3.17;;
4984;SDS011;2509;49.902;8.600;2023-04-25T15:54:36;4.53;;;4.03;;
4984;SDS011;2509;49.902;8.600;2023-04-25T15:57:38;4.53;;;3.80;;
4984;SDS011;2509;49.902;8.600;2023-04-25T16:00:41;4.20;;;4.00;;
4984;SDS011;2509;49.902;8.600;2023-04-25T16:03:42;9.23;;;4.47;;
4984;SDS011;2509;49.902;8.600;2023-04-25T16:06:45;7.40;;;5.03;;
4984;SDS011;2509;49.902;8.600;2023-04-25T16:09:48;4.80;;;4.37;;
4984;SDS011;2509;49.902;8.600;2023-04-25T16:12:49;4.53;;;4.20;;
4984;SDS011;2509;49.902;8.600;2023-04-25T16:15:51;19.70;;;11.57;;
4984;SDS011;2509;49.902;8.600;2023-04-25T16:18:53;5.37;;;4.90;;
4984;SDS011;2509;49.902;8.600;2023-04-25T16:21:56;5.23;;;4.83;;
4984;SDS011;2509;49.902;8.600;2023-04-25T16:24:58;11.27;;;5.20;;
4984;SDS011;2509;49.902;8.600;2023-04-25T16:27:59;6.00;;;4.60;;
4984;SDS011;2509;49.902;8.600;2023-04-25T16:31:01;5.47;;;4.30;;
4984;SDS011;2509;49.902;8.600;2023-04-25T16:34:03;4.60;;;4.30;;
4984;SDS011;2509;49.902;8.600;2023-04-25T16:37:06;4.47;;;4.13;;
4984;SDS011;2509;49.902;8.600;2023-04-25T16:40:08;5.93;;;4.50;;
4984;SDS011;2509;49.902;8.600;2023-04-25T16:43:10;7.83;;;6.90;;
4984;SDS011;2509;49.902;8.600;2023-04-25T16:46:12;7.13;;;4.70;;
4984;SDS011;2509;49.902;8.600;2023-04-25T16:49:13;4.10;;;3.60;;
4984;SDS011;2509;49.902;8.600;2023-04-25T16:52:17;3.90;;;3.70;;
4984;SDS011;2509;49.902;8.600;2023-04-25T16:55:20;4.63;;;4.20;;
4984;SDS011;2509;49.902;8.600;2023-04-25T16:58:22;7.63;;;5.23;;
4984;SDS011;2509;49.902;8.600;2023-04-25T17:01:26;3.80;;;3.60;;
4984;SDS011;2509;49.902;8.600;2023-04-25T17:04:27;4.80;;;3.77;;
4984;SDS011;2509;49.902;8.600;2023-04-25T17:07:31;16.33;;;10.50;;
4984;SDS011;2509;49.902;8.600;2023-04-25T17:10:32;7.00;;;6.50;;
4984;SDS011;2509;49.902;8.600;2023-04-25T17:13:34;8.13;;;5.20;;
4984;SDS011;2509;49.902;8.600;2023-04-25T17:16:36;5.20;;;4.90;;
4984;SDS011;2509;49.902;8.600;2023-04-25T17:19:38;7.13;;;4.97;;
4984;SDS011;2509;49.902;8.600;2023-04-25T17:22:42;7.40;;;5.13;;
4984;SDS011;2509;49.902;8.600;2023-04-25T17:25:44;6.43;;;5.30;;
4984;SDS011;2509;49.902;8.600;2023-04-25T17:28:45;5.90;;;4.20;;
4984;SDS011;2509;49.902;8.600;2023-04-25T17:31:48;6.57;;;4.00;;
4984;SDS011;2509;49.902;8.600;2023-04-25T17:34:50;4.07;;;3.80;;
4984;SDS011;2509;49.902;8.600;2023-04-25T17:37:53;4.87;;;4.00;;
4984;SDS011;2509;49.902;8.600;2023-04-25T17:40:55;4.90;;;4.20;;
4984;SDS011;2509;49.902;8.600;2023-04-25T17:43:56;7.03;;;4.30;;
4984;SDS011;2509;49.902;8.600;2023-04-25T17:46:58;4.20;;;3.77;;
4984;SDS011;2509;49.902;8.600;2023-04-25T17:50:01;5.77;;;5.10;;
4984;SDS011;2509;49.902;8.600;2023-04-25T17:53:05;6.27;;;5.87;;
4984;SDS011;2509;49.902;8.600;2023-04-25T17:56:06;5.37;;;4.97;;
4984;SDS011;2509;49.902;8.600;2023-04-25T17:59:09;6.67;;;4.80;;
4984;SDS011;2509;49.902;8.600;2023-04-25T18:02:10;5.93;;;4.70;;
4984;SDS011;2509;49.902;8.600;2023-04-25T18:05:12;6.77;;;4.63;;
4984;SDS011;2509;49.902;8.600;2023-04-25T18:08:15;4.83;;;4.40;;
4984;SDS011;2509;49.902;8.600;2023-04-25T18:11:17;8.63;;;7.80;;
4984;SDS011;2509;49.902;8.600;2023-04-25T18:14:19;11.80;;;6.90;;
4984;SDS011;2509;49.902;8.600;2023-04-25T18:17:23;6.93;;;5.00;;
4984;SDS011;2509;49.902;8.600;2023-04-25T18:20:24;6.87;;;6.17;;
4984;SDS011;2509;49.902;8.600;2023-04-25T18:23:28;8.80;;;5.70;;
4984;SDS011;2509;49.902;8.600;2023-04-25T18:26:31;4.50;;;4.30;;
4984;SDS011;2509;49.902;8.600;2023-04-25T18:29:33;9.20;;;4.53;;
4984;SDS011;2509;49.902;8.600;2023-04-25T18:32:36;5.30;;;4.80;;
4984;SDS011;2509;49.902;8.600;2023-04-25T18:35:38;8.70;;;4.87;;
4984;SDS011;2509;49.902;8.600;2023-04-25T18:38:41;8.20;;;4.60;;
4984;SDS011;2509;49.902;8.600;2023-04-25T18:41:43;4.73;;;4.33;;
4984;SDS011;2509;49.902;8.600;2023-04-25T18:44:45;5.00;;;4.60;;
4984;SDS011;2509;49.902;8.600;2023-04-25T18:47:47;8.27;;;4.47;;
4984;SDS011;2509;49.902;8.600;2023-04-25T18:50:49;4.50;;;4.30;;
4984;SDS011;2509;49.902;8.600;2023-04-25T18:53:52;4.37;;;4.17;;
4984;SDS011;2509;49.902;8.600;2023-04-25T18:56:54;4.63;;;4.23;;
4984;SDS011;2509;49.902;8.600;2023-04-25T18:59:57;4.93;;;4.43;;
4984;SDS011;2509;49.902;8.600;2023-04-25T19:03:03;5.20;;;4.80;;
4984;SDS011;2509;49.902;8.600;2023-04-25T19:06:05;5.40;;;5.00;;
4984;SDS011;2509;49.902;8.600;2023-04-25T19:09:08;4.40;;;4.00;;
4984;SDS011;2509;49.902;8.600;2023-04-25T19:12:10;4.63;;;4.33;;
4984;SDS011;2509;49.902;8.600;2023-04-25T19:15:12;6.70;;;4.70;;
4984;SDS011;2509;49.902;8.600;2023-04-25T19:18:13;5.73;;;5.13;;
4984;SDS011;2509;49.902;8.600;2023-04-25T19:21:16;11.43;;;9.03;;
4984;SDS011;2509;49.902;8.600;2023-04-25T19:24:19;6.53;;;5.93;;
4984;SDS011;2509;49.902;8.600;2023-04-25T19:27:21;8.60;;;5.47;;
4984;SDS011;2509;49.902;8.600;2023-04-25T19:30:22;7.87;;;5.43;;
4984;SDS011;2509;49.902;8.600;2023-04-25T19:33:25;8.57;;;5.77;;
4984;SDS011;2509;49.902;8.600;2023-04-25T19:36:27;4.87;;;4.37;;
4984;SDS011;2509;49.902;8.600;2023-04-25T19:39:30;5.53;;;5.03;;
4984;SDS011;2509;49.902;8.600;2023-04-25T19:42:32;5.30;;;4.83;;
4984;SDS011;2509;49.902;8.600;2023-04-25T19:45:33;5.20;;;4.80;;
4984;SDS011;2509;49.902;8.600;2023-04-25T19:48:35;4.63;;;4.30;;
4984;SDS011;2509;49.902;8.600;2023-04-25T19:51:37;9.60;;;4.00;;
4984;SDS011;2509;49.902;8.600;2023-04-25T19:54:40;4.10;;;3.80;;